Time;durP1;ratioP1;P1;durP2;ratioP2;P2;SDS_P1;SDS_P2;PMS_P1;PMS_P2;Temp;Humidity;BMP_temperature;BMP_pressure;BME280_temperature;BME280_humidity;BME280_pressure;Samples;Min_cycle;Max_cycle;Signal;HPM_P1;HPM_P2
2022/12/03 00:00:06;;;;;;;61.63;21.08;;;0.40;99.90;;;-1.49;100.00;101634.06;5026470;28;20476;-78
2022/12/03 00:02:38;;;;;;;53.42;20.33;;;0.40;99.90;;;-1.47;100.00;101632.94;5026599;28;20037;-78
2022/12/03 00:05:04;;;;;;;56.85;20.77;;;0.40;99.90;;;-1.45;100.00;101636.41;5026242;28;20510;-77
2022/12/03 00:07:30;;;;;;;57.10;21.17;;;0.40;99.90;;;-1.46;100.00;101642.72;5026384;28;20040;-78
2022/12/03 00:09:56;;;;;;;55.78;20.02;;;0.40;99.90;;;-1.49;100.00;101632.22;5026173;28;20030;-78
2022/12/03 00:12:21;;;;;;;53.75;20.38;;;0.40;99.90;;;-1.50;100.00;101640.38;5026744;28;20026;-78
2022/12/03 00:14:47;;;;;;;55.28;20.50;;;0.40;99.90;;;-1.53;100.00;101629.91;5025904;28;20037;-79
2022/12/03 00:17:16;;;;;;;59.60;21.05;;;0.40;99.90;;;-1.51;100.00;101633.31;5025598;28;20052;-78
2022/12/03 00:19:41;;;;;;;56.15;21.00;;;0.40;99.90;;;-1.49;100.00;101629.53;5026139;28;20045;-78
2022/12/03 00:22:07;;;;;;;58.35;20.85;;;0.40;99.90;;;-1.48;100.00;101635.75;5026093;28;20036;-80
2022/12/03 00:24:33;;;;;;;55.42;20.92;;;0.40;99.90;;;-1.50;100.00;101632.34;5025896;28;20099;-80
2022/12/03 00:26:59;;;;;;;51.88;19.38;;;0.40;99.90;;;-1.49;100.00;101626.88;5026068;28;20032;-79
2022/12/03 00:29:24;;;;;;;50.45;18.90;;;0.40;99.90;;;-1.48;100.00;101635.75;5035759;28;20044;-79
2022/12/03 00:31:51;;;;;;;58.75;21.67;;;0.40;99.90;;;-1.47;100.00;101632.13;5027308;28;20388;-77
2022/12/03 00:34:16;;;;;;;57.72;20.98;;;0.40;99.90;;;-1.51;100.00;101636.84;5025852;28;20618;-79
2022/12/03 00:36:42;;;;;;;56.63;20.08;;;0.40;99.90;;;-1.49;100.00;101628.69;5025320;28;20108;-79
2022/12/03 00:39:08;;;;;;;54.30;19.85;;;0.40;99.90;;;-1.52;100.00;101626.25;5026194;28;20037;-78
2022/12/03 00:41:34;;;;;;;61.63;20.60;;;0.40;99.90;;;-1.53;100.00;101613.84;5025989;28;20040;-79
2022/12/03 00:43:59;;;;;;;50.97;19.02;;;0.40;99.90;;;-1.52;100.00;101624.41;5025975;28;20036;-79
2022/12/03 00:46:26;;;;;;;56.58;20.63;;;0.40;99.90;;;-1.58;100.00;101624.88;5026275;28;20052;-79
2022/12/03 00:48:55;;;;;;;59.15;20.50;;;0.30;99.90;;;-1.57;100.00;101625.75;5025796;28;20032;-79
2022/12/03 00:51:20;;;;;;;50.92;18.80;;;0.30;99.90;;;-1.66;100.00;101606.69;5027884;28;20021;-80
2022/12/03 00:53:47;;;;;;;55.88;21.02;;;0.30;99.90;;;-1.62;100.00;101623.41;5030568;28;20025;-78
2022/12/03 00:56:12;;;;;;;55.10;20.17;;;0.30;99.90;;;-1.62;100.00;101624.25;5030364;28;20060;-78
2022/12/03 00:58:38;;;;;;;53.05;20.20;;;0.30;99.90;;;-1.60;100.00;101621.47;5029875;28;20025;-79
2022/12/03 01:01:04;;;;;;;53.35;18.13;;;0.30;99.90;;;-1.62;100.00;101624.25;5028914;28;20060;-79
2022/12/03 01:03:30;;;;;;;58.80;21.02;;;0.30;99.90;;;-1.59;100.00;101623.16;5028495;28;20040;-79
2022/12/03 01:05:55;;;;;;;54.83;19.73;;;0.30;99.90;;;-1.59;100.00;101628.53;5028703;28;20026;-78
2022/12/03 01:08:21;;;;;;;61.97;20.05;;;0.30;99.90;;;-1.59;100.00;101633.88;5028114;28;20029;-78
2022/12/03 01:10:50;;;;;;;51.58;18.35;;;0.30;99.90;;;-1.61;100.00;101631.28;5030388;28;20108;-78
2022/12/03 01:13:15;;;;;;;55.28;20.48;;;0.30;99.90;;;-1.58;100.00;101630.22;5028664;28;20503;-79
2022/12/03 01:15:41;;;;;;;58.40;20.95;;;0.30;99.90;;;-1.67;100.00;101625.56;5026098;28;20045;-78
2022/12/03 01:18:10;;;;;;;56.28;20.15;;;0.30;99.90;;;-1.65;100.00;101624.47;5028176;28;20119;-79
2022/12/03 01:20:37;;;;;;;55.20;20.20;;;0.20;99.90;;;-1.66;100.00;101628.13;5029905;28;20505;-78
2022/12/03 01:23:04;;;;;;;57.57;20.07;;;0.20;99.90;;;-1.68;100.00;101638.06;5028518;28;20385;-78
2022/12/03 01:25:29;;;;;;;56.50;20.13;;;0.20;99.90;;;-1.73;100.00;101630.38;5029539;28;20034;-79
2022/12/03 01:27:55;;;;;;;55.40;20.52;;;0.20;99.90;;;-1.74;100.00;101635.84;5028851;28;20025;-79
2022/12/03 01:30:21;;;;;;;56.33;19.17;;;0.20;99.90;;;-1.74;100.00;101641.22;5028865;28;20029;-78
2022/12/03 01:32:47;;;;;;;59.05;19.95;;;0.20;99.90;;;-1.74;100.00;101641.22;5029548;28;20047;-77
2022/12/03 01:35:12;;;;;;;71.05;22.25;;;0.20;99.90;;;-1.74;100.00;101636.69;5027232;28;21224;-78
2022/12/03 01:37:38;;;;;;;63.78;21.70;;;0.10;99.90;;;-1.73;100.00;101638.41;5028772;28;20034;-79
2022/12/03 01:40:07;;;;;;;67.90;20.95;;;0.20;99.90;;;-1.73;100.00;101634.88;5028114;28;20044;-78
2022/12/03 01:42:39;;;;;;;61.30;21.75;;;0.20;99.90;;;-1.77;100.00;101636.09;5025618;28;20050;-77
2022/12/03 01:45:10;;;;;;;65.03;20.83;;;0.10;99.90;;;-1.72;100.00;101633.91;5028872;28;20072;-78
2022/12/03 01:47:42;;;;;;;57.90;21.35;;;0.20;99.90;;;-1.77;100.00;101630.72;5025571;28;20045;-79
2022/12/03 01:50:29;;;;;;;66.63;21.50;;;0.10;99.90;;;-1.76;100.00;101627.09;5024942;28;20388;-79
2022/12/03 01:53:03;;;;;;;66.45;21.75;;;0.10;99.90;;;-1.80;100.00;101630.97;5023056;28;20112;-77
2022/12/03 01:55:30;;;;;;;66.10;22.50;;;0.10;99.90;;;-1.79;100.00;101633.50;5027466;28;20429;-78
2022/12/03 01:58:00;;;;;;;67.78;22.20;;;0.10;99.90;;;-1.79;100.00;101630.81;5028620;28;20064;-78
2022/12/03 02:00:28;;;;;;;70.80;22.42;;;0.10;99.90;;;-1.77;100.00;101630.72;5027238;28;20065;-79
2022/12/03 02:03:01;;;;;;;70.93;22.33;;;0.10;99.90;;;-1.79;100.00;101638.84;5029188;28;20033;-77
2022/12/03 02:05:31;;;;;;;66.80;22.35;;;0.10;99.90;;;-1.77;100.00;101630.72;5028230;28;20559;-78
2022/12/03 02:07:57;;;;;;;71.93;25.08;;;0.10;99.90;;;-1.79;100.00;101635.34;5028609;28;20032;-79
2022/12/03 02:10:31;;;;;;;64.90;22.05;;;0.10;99.90;;;-1.77;100.00;101641.44;5026791;28;20056;-78
2022/12/03 02:13:07;;;;;;;67.07;22.52;;;0.10;99.90;;;-1.77;100.00;101634.25;5027930;28;20025;-78
2022/12/03 02:15:35;;;;;;;64.35;21.52;;;0.10;99.90;;;-1.84;100.00;101637.50;5028097;28;20036;-79
2022/12/03 02:18:01;;;;;;;64.78;21.73;;;0.10;99.90;;;-1.84;100.00;101630.31;5028725;28;20052;-78
2022/12/03 02:20:29;;;;;;;59.75;19.95;;;0.10;99.90;;;-1.84;100.00;101638.34;5029246;28;20029;-77
2022/12/03 02:23:53;;;;;;;68.93;22.05;;;0.00;99.90;;;-1.90;100.00;101625.41;5026316;28;20144;-78
2022/12/03 02:26:19;;;;;;;61.90;21.02;;;0.10;99.90;;;-1.91;100.00;101632.56;5023534;28;20088;-79
2022/12/03 02:28:52;;;;;;;61.55;19.88;;;0.00;99.90;;;-1.92;100.00;101630.84;5036748;28;20069;-80
2022/12/03 02:31:17;;;;;;;62.47;20.48;;;0.00;99.90;;;-1.91;100.00;101643.28;5030297;28;20163;-79
2022/12/03 02:33:44;;;;;;;58.25;21.48;;;0.00;99.90;;;-1.92;100.00;101632.69;5031994;28;20101;-77
2022/12/03 02:36:11;;;;;;;61.97;23.70;;;0.00;99.90;;;-1.99;100.00;101626.94;5028418;28;20524;-76
2022/12/03 02:38:38;;;;;;;62.20;20.80;;;-0.10;99.90;;;-1.93;100.00;101631.81;5021163;28;20057;-76
2022/12/03 02:41:09;;;;;;;60.45;20.40;;;-0.10;99.90;;;-1.94;100.00;101637.31;5026224;28;20094;-76
2022/12/03 02:43:35;;;;;;;61.42;21.17;;;-0.10;99.90;;;-1.99;100.00;101632.28;5023652;28;20057;-77
2022/12/03 02:46:03;;;;;;;59.80;19.90;;;-0.10;99.90;;;-1.97;100.00;101630.34;5027199;28;20061;-79
2022/12/03 02:48:34;;;;;;;58.70;20.70;;;-0.10;99.90;;;-1.99;100.00;101632.28;5026715;28;20353;-77
2022/12/03 02:51:07;;;;;;;55.05;19.15;;;-0.10;99.90;;;-2.00;100.00;101630.56;5028632;28;20104;-77
2022/12/03 02:53:41;;;;;;;56.00;20.40;;;-0.10;99.90;;;-1.99;100.00;101634.94;5023610;28;20075;-77
2022/12/03 02:56:10;;;;;;;62.35;19.73;;;-0.10;99.90;;;-1.95;100.00;101628.41;5027575;28;20071;-78
2022/12/03 02:58:38;;;;;;;63.40;21.85;;;-0.10;99.90;;;-1.96;100.00;101639.25;5027709;28;20036;-77
2022/12/03 03:01:04;;;;;;;56.03;19.88;;;-0.10;99.90;;;-2.03;100.00;101626.28;5028170;28;21849;-77
2022/12/03 03:03:32;;;;;;;57.45;19.52;;;-0.10;99.90;;;-2.03;100.00;101636.13;5026856;28;20476;-79
2022/12/03 03:06:01;;;;;;;57.72;21.65;;;-0.10;99.90;;;-2.00;100.00;101635.91;5021715;28;20567;-78
2022/12/03 03:08:28;;;;;;;59.22;20.10;;;-0.10;99.90;;;-2.04;100.00;101635.28;5028297;28;20107;-77
2022/12/03 03:10:58;;;;;;;61.92;20.92;;;-0.10;99.90;;;-2.00;100.00;101635.06;5026857;28;20527;-77
2022/12/03 03:13:24;;;;;;;59.65;20.10;;;-0.10;99.90;;;-1.99;100.00;101634.09;5026381;28;20519;-77
2022/12/03 03:15:50;;;;;;;61.25;22.38;;;-0.10;99.90;;;-1.97;100.00;101632.19;5027650;28;20041;-78
2022/12/03 03:18:17;;;;;;;53.08;19.13;;;-0.10;99.90;;;-2.05;100.00;101622.03;5027536;28;20408;-78
2022/12/03 03:20:44;;;;;;;62.50;20.23;;;-0.10;99.90;;;-1.98;100.00;101627.81;5026609;28;20030;-76
2022/12/03 03:23:10;;;;;;;60.07;20.30;;;-0.10;99.90;;;-1.96;100.00;101626.69;5022684;28;20337;-80
2022/12/03 03:25:37;;;;;;;54.90;18.42;;;0.00;99.90;;;-1.92;100.00;101632.69;5026737;28;20121;-78
2022/12/03 03:28:04;;;;;;;;;;;-0.10;99.90;;;-1.95;100.00;101633.75;5026616;28;20056;-78
2022/12/03 03:30:31;;;;;;;52.35;18.70;;;-0.10;99.90;;;-1.97;100.00;101632.19;5026081;28;19920;-79
2022/12/03 03:32:57;;;;;;;51.33;18.35;;;-0.10;99.90;;;-1.98;100.00;101619.78;5026729;28;20091;-77
2022/12/03 03:35:24;;;;;;;56.60;18.15;;;-0.10;99.90;;;-2.03;100.00;101617.41;5026655;28;20116;-78
2022/12/03 03:37:53;;;;;;;53.47;16.88;;;-0.10;99.90;;;-2.06;100.00;101621.16;5026952;28;20122;-78
2022/12/03 03:40:20;;;;;;;49.05;16.95;;;-0.10;99.90;;;-2.08;100.00;101617.75;5027195;28;20033;-78
2022/12/03 03:42:47;;;;;;;50.25;16.88;;;-0.10;99.90;;;-2.06;100.00;101617.66;5026921;28;20029;-78
2022/12/03 03:45:14;;;;;;;52.30;17.63;;;-0.10;99.90;;;-2.00;100.00;101614.53;5026558;28;20044;-79
2022/12/03 03:47:41;;;;;;;54.60;17.52;;;-0.10;99.90;;;-2.03;100.00;101617.41;5026525;28;20021;-77
2022/12/03 03:50:09;;;;;;;50.67;16.33;;;-0.10;99.90;;;-2.03;100.00;101612.06;5025874;28;20447;-78
2022/12/03 03:52:37;;;;;;;49.45;16.75;;;-0.20;99.90;;;-2.10;100.00;101600.97;5027749;28;20177;-77
2022/12/03 03:55:04;;;;;;;51.35;15.98;;;-0.20;99.90;;;-2.06;100.00;101617.66;5026160;28;20095;-77
2022/12/03 03:57:31;;;;;;;45.30;15.95;;;-0.20;99.90;;;-2.09;100.00;101615.19;5027388;28;20076;-77
2022/12/03 03:59:58;;;;;;;43.45;15.73;;;-0.20;99.90;;;-2.11;100.00;101604.59;5024994;28;20577;-78
2022/12/03 04:02:26;;;;;;;47.80;15.77;;;-0.20;99.90;;;-2.11;100.00;101606.44;5020126;28;20110;-78
2022/12/03 04:04:53;;;;;;;41.03;15.02;;;-0.20;99.90;;;-2.09;100.00;101615.19;5026518;28;20061;-78
2022/12/03 04:07:19;;;;;;;47.28;15.48;;;-0.20;99.90;;;-2.08;100.00;101608.88;5027403;28;20064;-77
2022/12/03 04:09:45;;;;;;;45.97;16.70;;;-0.20;99.90;;;-2.09;100.00;101610.69;5025298;28;20029;-78
2022/12/03 04:14:56;;;;;;;44.22;16.70;;;-0.20;99.90;;;-2.10;100.00;101603.63;5024468;28;20387;-78
2022/12/03 04:17:22;;;;;;;45.95;16.27;;;-0.20;99.90;;;-2.06;100.00;101614.97;5025869;28;20030;-78
2022/12/03 04:19:48;;;;;;;45.70;17.25;;;-0.20;99.90;;;-2.07;100.00;101614.09;5026049;28;20522;-77
2022/12/03 04:30:28;;;;;;;43.90;15.05;;;-0.20;99.90;;;-2.07;100.00;101608.75;5021272;28;20026;-77
2022/12/03 04:35:41;;;;;;;46.60;16.48;;;-0.20;99.90;;;-2.16;100.00;101612.09;5025506;28;20093;-78
2022/12/03 04:38:09;;;;;;;51.40;16.90;;;-0.20;99.90;;;-2.22;100.00;101612.53;5030004;28;20518;-78
2022/12/03 04:43:20;;;;;;;54.65;17.80;;;-0.30;99.90;;;-2.21;100.00;101614.25;5025439;28;20096;-78
2022/12/03 04:45:46;;;;;;;52.65;18.70;;;-0.30;99.90;;;-2.26;100.00;101609.22;5027175;28;20079;-78
2022/12/03 04:48:11;;;;;;;53.22;19.20;;;-0.30;99.90;;;-2.32;100.00;101602.47;5029453;28;20021;-77
2022/12/03 04:50:37;;;;;;;55.15;19.58;;;-0.30;99.90;;;-2.25;100.00;101600.22;5029078;28;20076;-79
2022/12/03 04:53:04;;;;;;;63.28;19.48;;;-0.30;99.90;;;-2.25;100.00;101608.25;5030500;28;20507;-79
2022/12/03 04:55:30;;;;;;;61.38;20.83;;;-0.30;99.90;;;-2.25;100.00;101602.06;5027131;28;20030;-77
2022/12/03 04:57:55;;;;;;;65.22;21.55;;;-0.30;99.90;;;-2.26;100.00;101598.53;5023177;28;20180;-79
2022/12/03 05:00:21;;;;;;;67.97;22.15;;;-0.30;99.90;;;-2.28;100.00;101600.47;5025746;28;20095;-78
2022/12/03 05:02:47;;;;;;;60.70;20.95;;;-0.40;99.90;;;-2.31;100.00;101598.00;5027639;28;20034;-76
2022/12/03 05:05:13;;;;;;;70.68;23.40;;;-0.40;99.90;;;-2.26;100.00;101611.91;5022829;28;20034;-75
2022/12/03 05:07:39;;;;;;;61.47;20.75;;;-0.30;99.90;;;-2.23;100.00;101600.97;5029348;28;20453;-76
2022/12/03 05:10:05;;;;;;;72.80;22.70;;;-0.30;99.90;;;-2.22;100.00;101605.38;5029631;28;20043;-76
2022/12/03 05:12:31;;;;;;;67.28;22.67;;;-0.30;99.90;;;-2.22;100.00;101605.38;5030575;28;20413;-78
2022/12/03 05:14:57;;;;;;;71.30;22.70;;;-0.30;99.90;;;-2.24;100.00;101601.94;5019265;28;20041;-76
2022/12/03 05:17:23;;;;;;;74.45;24.13;;;-0.30;99.90;;;-2.24;100.00;101601.94;5028775;28;20040;-75
2022/12/03 05:22:33;;;;;;;71.57;22.52;;;-0.30;99.90;;;-2.28;100.00;101597.78;5029145;28;20040;-76
2022/12/03 05:24:59;;;;;;;71.10;22.83;;;-0.40;99.90;;;-2.25;100.00;101602.91;5029362;28;20030;-77
2022/12/03 05:27:25;;;;;;;76.03;24.88;;;-0.30;99.90;;;-2.26;100.00;101592.31;5026979;28;20025;-81
2022/12/03 05:29:51;;;;;;;74.95;23.73;;;-0.30;99.90;;;-2.28;100.00;101604.94;5028025;28;20033;-77
2022/12/03 05:32:18;;;;;;;63.92;23.85;;;-0.40;99.90;;;-2.24;100.00;101599.28;5028785;28;20025;-77
2022/12/03 05:34:44;;;;;;;69.45;23.38;;;-0.30;99.90;;;-2.24;100.00;101598.44;5029294;28;20030;-76
2022/12/03 05:37:09;;;;;;;65.82;22.05;;;-0.40;99.90;;;-2.27;100.00;101599.50;5025755;28;20439;-77
2022/12/03 05:39:36;;;;;;;71.25;22.65;;;-0.30;99.90;;;-2.26;100.00;101598.53;5029593;28;20475;-77
2022/12/03 05:44:46;;;;;;;61.33;22.40;;;-0.30;99.90;;;-2.27;100.00;101591.47;5028237;28;20107;-78
2022/12/03 05:47:12;;;;;;;65.90;22.52;;;-0.40;99.90;;;-2.29;100.00;101588.06;5028958;28;20029;-77
2022/12/03 05:49:37;;;;;;;75.10;25.13;;;-0.40;99.90;;;-2.27;100.00;101604.84;5042125;28;20057;-78
2022/12/03 05:52:03;;;;;;;73.60;25.13;;;-0.30;99.90;;;-2.28;100.00;101592.44;5022016;28;20036;-78
2022/12/03 05:54:29;;;;;;;82.70;25.00;;;-0.40;99.90;;;-2.29;100.00;101598.75;5029444;28;20025;-75
2022/12/03 05:56:55;;;;;;;77.13;25.00;;;-0.40;99.90;;;-2.35;100.00;101597.34;5023217;28;20025;-77
2022/12/03 05:59:21;;;;;;;73.75;25.63;;;-0.40;99.90;;;-2.30;100.00;101607.72;5023558;28;20021;-76
2022/12/03 06:01:46;;;;;;;78.13;24.85;;;-0.40;99.90;;;-2.34;100.00;101595.56;5023036;28;20040;-77
2022/12/03 06:04:12;;;;;;;71.35;24.65;;;-0.40;99.90;;;-2.36;100.00;101592.97;5028584;28;20526;-78
2022/12/03 06:06:38;;;;;;;76.03;25.10;;;-0.40;99.90;;;-2.32;100.00;101590.94;5026340;28;20128;-79
2022/12/03 06:09:04;;;;;;;80.22;25.17;;;-0.40;99.90;;;-2.34;100.00;101600.91;5028713;28;20037;-78
2022/12/03 06:11:32;;;;;;;78.93;25.23;;;-0.40;99.90;;;-2.35;100.00;101605.38;5026947;28;20030;-79
2022/12/03 06:13:58;;;;;;;76.57;25.35;;;-0.40;99.90;;;-2.34;100.00;101603.56;5022495;28;20053;-75
2022/12/03 06:16:24;;;;;;;72.78;24.23;;;-0.40;99.90;;;-2.35;100.00;101602.69;5023955;28;20493;-76
2022/12/03 06:18:50;;;;;;;75.20;24.05;;;-0.40;99.90;;;-2.41;100.00;101588.91;5021430;28;20124;-77
2022/12/03 06:21:16;;;;;;;72.50;24.60;;;-0.40;99.90;;;-2.34;100.00;101592.88;5025622;28;20107;-76
2022/12/03 06:23:43;;;;;;;75.95;24.80;;;-0.40;99.90;;;-2.33;100.00;101597.25;5027766;28;20041;-77
2022/12/03 06:26:13;;;;;;;72.90;24.50;;;-0.40;99.90;;;-2.38;100.00;101596.75;5026167;28;20030;-78
2022/12/03 06:28:45;;;;;;;70.60;24.83;;;-0.40;99.90;;;-2.43;100.00;101591.72;5020925;28;20109;-77
2022/12/03 06:31:12;;;;;;;73.28;23.10;;;-0.40;99.90;;;-2.42;100.00;101598.75;5023910;28;20033;-76
2022/12/03 06:33:37;;;;;;;71.07;24.57;;;-0.50;99.90;;;-2.41;100.00;101602.28;5026868;28;20025;-75
2022/12/03 06:36:04;;;;;;;69.45;22.58;;;-0.50;99.90;;;-2.44;100.00;101597.16;5029995;28;20172;-79
2022/12/03 06:38:30;;;;;;;75.18;24.98;;;-0.50;99.90;;;-2.42;100.00;101596.09;5041123;28;20377;-79
2022/12/03 06:40:59;;;;;;;76.13;25.05;;;-0.50;99.90;;;-2.39;100.00;101597.66;5025711;28;20087;-77
2022/12/03 06:43:27;;;;;;;71.55;23.98;;;-0.50;99.90;;;-2.38;100.00;101592.22;5024562;28;20075;-74
2022/12/03 06:45:53;;;;;;;70.88;24.10;;;-0.50;99.90;;;-2.34;100.00;101595.56;5027178;28;20392;-73
2022/12/03 06:48:19;;;;;;;71.78;23.98;;;-0.50;99.90;;;-2.37;100.00;101601.13;5024123;28;20037;-74
2022/12/03 06:50:44;;;;;;;72.43;25.63;;;-0.50;99.90;;;-2.40;100.00;101595.97;5026561;28;20025;-75
2022/12/03 06:53:10;;;;;;;76.13;24.85;;;-0.40;99.90;;;-2.34;100.00;101600.91;5028031;28;20387;-74
2022/12/03 06:55:36;;;;;;;72.10;26.27;;;-0.50;99.90;;;-2.33;100.00;101602.59;5026521;28;20045;-74
2022/12/03 06:58:01;;;;;;;71.38;24.35;;;-0.50;99.90;;;-2.34;100.00;101603.56;5027744;28;20040;-76
2022/12/03 07:00:27;;;;;;;67.13;24.50;;;-0.50;99.90;;;-2.33;100.00;101602.59;5019944;28;20036;-78
2022/12/03 07:02:53;;;;;;;72.30;25.17;;;-0.50;99.90;;;-2.32;100.00;101594.47;5026494;28;20048;-76
2022/12/03 07:05:19;;;;;;;71.10;25.13;;;-0.40;99.90;;;-2.40;100.00;101586.16;5026296;28;20037;-77
2022/12/03 07:07:50;;;;;;;71.60;24.58;;;-0.50;99.90;;;-2.39;100.00;101597.66;5027160;28;20038;-77
2022/12/03 07:10:17;;;;;;;65.90;23.70;;;-0.50;99.90;;;-2.35;100.00;101586.66;5028325;28;20140;-76
2022/12/03 07:12:43;;;;;;;76.20;25.67;;;-0.50;99.90;;;-2.34;100.00;101595.56;5023942;28;20022;-78
2022/12/03 07:15:09;;;;;;;73.53;23.95;;;-0.50;99.90;;;-2.41;100.00;101583.56;5025936;28;20111;-79
2022/12/03 07:17:35;;;;;;;73.13;25.33;;;-0.50;99.90;;;-2.40;100.00;101590.63;5026102;28;20084;-75
2022/12/03 07:20:03;;;;;;;75.00;25.27;;;-0.50;99.90;;;-2.44;100.00;101578.44;5025167;28;20060;-78
2022/12/03 07:22:29;;;;;;;74.47;24.67;;;-0.50;99.90;;;-2.44;100.00;101590.00;5025524;28;20029;-77
2022/12/03 07:24:55;;;;;;;74.25;24.80;;;-0.50;99.90;;;-2.45;100.00;101588.28;5022992;28;20037;-78
2022/12/03 07:27:21;;;;;;;73.85;24.67;;;-0.50;99.90;;;-2.44;100.00;101581.13;5025570;28;20080;-77
2022/12/03 07:29:47;;;;;;;74.85;25.23;;;-0.50;99.90;;;-2.46;100.00;101578.56;5018889;28;20037;-77
2022/12/03 07:32:12;;;;;;;72.90;25.55;;;-0.50;99.90;;;-2.48;100.00;101583.16;5024736;28;20037;-77
2022/12/03 07:34:38;;;;;;;77.68;27.23;;;-0.50;99.90;;;-2.53;100.00;101575.47;5025415;28;20033;-78
2022/12/03 07:37:04;;;;;;;77.07;27.42;;;-0.50;99.90;;;-2.56;100.00;101570.34;5027232;28;20384;-78
2022/12/03 07:39:30;;;;;;;76.30;27.25;;;-0.50;99.90;;;-2.51;100.00;101584.22;5027471;28;20029;-77
2022/12/03 07:41:55;;;;;;;80.10;25.60;;;-0.60;99.90;;;-2.48;100.00;101589.34;5025067;28;20272;-78
2022/12/03 07:44:21;;;;;;;77.13;26.00;;;-0.60;99.90;;;-2.51;100.00;101578.88;5025426;28;20025;-79
2022/12/03 07:46:47;;;;;;;83.45;26.92;;;-0.60;99.90;;;-2.49;100.00;101579.63;5025370;28;20041;-76
2022/12/03 07:49:13;;;;;;;82.40;27.30;;;-0.60;99.90;;;-2.53;100.00;101580.81;5025357;28;20037;-77
2022/12/03 07:51:38;;;;;;;73.35;26.35;;;-0.60;99.90;;;-2.52;100.00;101576.31;5025014;28;20036;-79
2022/12/03 07:54:05;;;;;;;77.80;26.42;;;-0.60;99.90;;;-2.55;100.00;101574.72;5022730;28;20033;-78
2022/12/03 07:56:31;;;;;;;89.65;27.92;;;-0.60;99.90;;;-2.55;100.00;101571.19;5026013;28;20037;-79
2022/12/03 07:58:56;;;;;;;73.53;26.45;;;-0.60;99.90;;;-2.56;100.00;101574.81;5024224;28;20329;-75
2022/12/03 08:01:22;;;;;;;75.22;24.88;;;-0.60;99.90;;;-2.54;100.00;101576.44;5024271;28;20452;-77
2022/12/03 08:03:48;;;;;;;77.93;26.45;;;-0.60;99.90;;;-2.59;100.00;101565.22;5040131;28;20048;-76
2022/12/03 08:06:14;;;;;;;81.82;27.88;;;-0.60;99.90;;;-2.53;100.00;101572.78;5024571;28;20034;-76
2022/12/03 08:08:39;;;;;;;83.35;28.33;;;-0.60;99.90;;;-2.57;100.00;101573.97;5024444;28;20247;-77
2022/12/03 08:11:05;;;;;;;88.88;29.13;;;-0.60;99.90;;;-2.55;100.00;101568.50;5025368;28;20377;-74
2022/12/03 08:13:33;;;;;;;82.32;28.40;;;-0.60;99.90;;;-2.56;100.00;101558.78;5025426;28;20111;-77
2022/12/03 08:16:09;;;;;;;88.20;28.65;;;-0.60;99.90;;;-2.53;100.00;101575.47;5025308;28;20033;-77
2022/12/03 08:18:34;;;;;;;88.78;29.35;;;-0.60;99.90;;;-2.54;100.00;101568.41;5026319;28;20169;-75
2022/12/03 08:21:00;;;;;;;93.20;28.90;;;-0.60;99.90;;;-2.51;100.00;101565.53;5025330;28;20152;-76
2022/12/03 08:23:27;;;;;;;80.05;27.83;;;-0.60;99.90;;;-2.53;100.00;101564.78;5025595;28;20032;-74
2022/12/03 08:25:52;;;;;;;87.75;27.67;;;-0.60;99.90;;;-2.51;100.00;101562.00;5023786;28;20037;-75
2022/12/03 08:28:25;;;;;;;83.75;27.52;;;-0.50;99.90;;;-2.46;100.00;101568.72;5024969;28;20033;-75
2022/12/03 08:31:11;;;;;;;86.85;28.88;;;-0.60;99.90;;;-2.44;100.00;101560.59;5024618;28;20065;-75
2022/12/03 08:33:39;;;;;;;85.30;28.40;;;-0.50;99.90;;;-2.41;100.00;101578.22;5022551;28;20040;-76
2022/12/03 08:36:24;;;;;;;80.95;28.15;;;-0.50;99.90;;;-2.39;100.00;101569.16;5025169;28;20037;-75
2022/12/03 08:38:55;;;;;;;84.25;26.95;;;-0.50;99.90;;;-2.39;100.00;101568.28;5020907;28;20044;-75
2022/12/03 08:44:31;;;;;;;86.10;29.08;;;-0.40;99.90;;;-2.42;100.00;101569.38;5024093;28;20037;-74
2022/12/03 08:47:08;;;;;;;88.18;28.73;;;-0.50;99.90;;;-2.47;100.00;101568.84;5024749;28;20021;-75
2022/12/03 08:49:36;;;;;;;88.60;29.10;;;-0.50;99.90;;;-2.50;100.00;101555.69;5033492;28;20041;-75
2022/12/03 08:52:18;;;;;;;80.50;28.40;;;-0.50;99.90;;;-2.44;100.00;101565.06;5027048;28;20025;-74
2022/12/03 08:54:53;;;;;;;81.32;27.90;;;-0.50;99.90;;;-2.43;100.00;101564.97;5023607;28;20491;-75
2022/12/03 08:57:33;;;;;;;81.57;28.45;;;-0.50;99.90;;;-2.46;100.00;101560.69;5026693;28;20037;-75
2022/12/03 09:00:19;;;;;;;89.85;29.20;;;-0.50;99.90;;;-2.43;100.00;101556.97;5021689;28;20040;-78
2022/12/03 09:02:57;;;;;;;83.90;29.48;;;-0.50;99.90;;;-2.50;100.00;101553.88;5024323;28;20018;-76
2022/12/03 09:05:31;;;;;;;;;;;-0.50;99.90;;;-2.51;100.00;101560.19;5028913;28;20158;-77
2022/12/03 09:07:58;;;;;;;81.05;27.98;;;-0.60;99.90;;;-2.54;100.00;101557.72;5028862;28;19917;-77
2022/12/03 09:10:24;;;;;;;84.50;29.92;;;-0.60;99.90;;;-2.53;100.00;101564.78;5025646;28;20036;-78
2022/12/03 09:12:49;;;;;;;85.50;29.65;;;-0.60;99.90;;;-2.50;100.00;101564.56;5026446;28;20107;-75
2022/12/03 09:15:15;;;;;;;83.25;27.95;;;-0.60;99.90;;;-2.48;100.00;101559.13;5027744;28;20479;-74
2022/12/03 09:17:41;;;;;;;81.30;30.05;;;-0.60;99.90;;;-2.51;100.00;101556.66;5031229;28;20017;-76
2022/12/03 09:20:07;;;;;;;89.00;30.45;;;-0.60;99.90;;;-2.49;100.00;101552.91;5030209;28;20511;-76
2022/12/03 09:22:33;;;;;;;84.97;29.48;;;-0.50;99.90;;;-2.45;100.00;101556.22;5028714;28;20364;-74
2022/12/03 09:24:59;;;;;;;86.43;30.33;;;-0.50;99.90;;;-2.43;100.00;101554.28;5024224;28;20045;-78
2022/12/03 09:27:25;;;;;;;75.63;28.33;;;-0.50;99.90;;;-2.36;100.00;101560.91;5030196;28;20033;-76
2022/12/03 09:29:50;;;;;;;83.78;29.40;;;-0.50;99.90;;;-2.35;100.00;101549.25;5028249;28;20034;-75
2022/12/03 09:32:16;;;;;;;87.32;29.88;;;-0.40;99.90;;;-2.30;100.00;101564.97;5029401;28;20032;-77
2022/12/03 09:34:42;;;;;;;85.90;29.33;;;-0.40;99.90;;;-2.31;100.00;101552.56;5030264;28;20033;-73
2022/12/03 09:37:08;;;;;;;80.32;28.35;;;-0.40;99.90;;;-2.24;100.00;101559.16;5021717;28;20546;-73
2022/12/03 09:39:34;;;;;;;93.22;30.27;;;-0.30;99.90;;;-2.24;100.00;101559.16;5028414;28;20328;-74
2022/12/03 09:42:01;;;;;;;83.80;30.67;;;-0.30;99.90;;;-2.22;100.00;101551.88;5028816;28;20116;-74
2022/12/03 09:44:33;;;;;;;83.25;29.77;;;-0.30;99.90;;;-2.19;100.00;101543.63;5028649;28;20211;-74
2022/12/03 09:47:03;;;;;;;82.45;28.60;;;-0.20;99.90;;;-2.21;100.00;101558.94;5033433;28;20080;-74
2022/12/03 09:49:34;;;;;;;85.70;29.38;;;-0.30;99.90;;;-2.15;100.00;101554.09;5028735;28;20468;-74
2022/12/03 09:52:03;;;;;;;86.97;31.52;;;-0.30;99.90;;;-2.15;100.00;101546.09;5028866;28;20030;-76
2022/12/03 09:54:31;;;;;;;78.00;29.00;;;-0.20;99.90;;;-2.11;100.00;101548.44;5028262;28;20029;-76
2022/12/03 09:57:01;;;;;;;82.68;30.65;;;-0.20;99.90;;;-2.15;100.00;101546.97;5028259;28;20030;-76
2022/12/03 09:59:33;;;;;;;76.85;29.50;;;-0.20;99.90;;;-2.06;100.00;101550.78;5028503;28;20510;-75
2022/12/03 10:02:01;;;;;;;81.80;29.52;;;-0.20;99.90;;;-2.08;100.00;101545.53;5029096;28;20085;-75
2022/12/03 10:04:30;;;;;;;86.32;29.58;;;-0.20;99.90;;;-2.05;100.00;101549.81;5028022;28;20025;-75
2022/12/03 10:06:57;;;;;;;80.10;29.88;;;-0.10;99.90;;;-2.00;100.00;101544.09;5028171;28;20455;-76
2022/12/03 10:09:27;;;;;;;81.25;29.50;;;-0.10;99.90;;;-2.03;100.00;101545.22;5027765;28;20407;-76
2022/12/03 10:11:58;;;;;;;77.82;28.90;;;-0.10;99.90;;;-2.09;100.00;101524.28;5028052;28;20439;-75
2022/12/03 10:14:24;;;;;;;79.80;29.52;;;-0.10;99.90;;;-1.97;100.00;101534.06;5027915;28;20029;-75
2022/12/03 10:16:50;;;;;;;82.10;30.55;;;-0.10;99.90;;;-2.00;100.00;101534.28;5029133;28;20029;-78
2022/12/03 10:19:25;;;;;;;83.35;30.13;;;-0.10;99.90;;;-1.97;100.00;101528.69;5028926;28;20064;-74
2022/12/03 10:21:51;;;;;;;78.35;29.67;;;-0.10;99.90;;;-1.95;100.00;101529.44;5027869;28;20053;-74